createdAt,value
2017-07-12T00:00:55.497Z,1004.3
2017-07-12T00:01:57.534Z,1004.3
2017-07-12T00:02:59.559Z,1004.3
2017-07-12T00:04:01.587Z,1004.2
2017-07-12T00:05:03.954Z,1004.2
2017-07-12T00:06:05.994Z,1004.2
2017-07-12T00:07:08.025Z,1004.1
2017-07-12T00:08:10.386Z,1004.1
2017-07-12T00:09:12.764Z,1004.1
2017-07-12T00:10:14.796Z,1004
2017-07-12T00:11:16.815Z,1004.1
2017-07-12T00:12:18.859Z,1004.1
2017-07-12T00:13:20.885Z,1004.1
2017-07-12T00:14:23.258Z,1004.1
2017-07-12T00:15:25.285Z,1004.1
2017-07-12T00:16:27.319Z,1004.1
2017-07-12T00:17:29.352Z,1004.1
2017-07-12T00:18:31.732Z,1004.1
2017-07-12T00:19:33.767Z,1004
2017-07-12T00:20:35.789Z,1004
2017-07-12T00:21:37.827Z,1004
2017-07-12T00:22:39.865Z,1004
2017-07-12T00:23:41.896Z,1004
2017-07-12T00:24:43.922Z,1004
2017-07-12T00:25:46.301Z,1003.9
2017-07-12T00:26:48.331Z,1003.9
2017-07-12T00:27:50.359Z,1003.9
2017-07-12T00:28:52.388Z,1003.9
2017-07-12T00:29:54.428Z,1003.9
2017-07-12T00:30:56.455Z,1003.9
2017-07-12T00:31:58.482Z,1003.9
2017-07-12T00:33:00.510Z,1003.8
2017-07-12T00:34:02.545Z,1003.8
2017-07-12T00:35:04.579Z,1003.8
2017-07-12T00:36:06.615Z,1003.8
2017-07-12T00:37:08.648Z,1003.8
2017-07-12T00:38:10.690Z,1003.8
2017-07-12T00:39:12.710Z,1003.8
2017-07-12T00:40:14.748Z,1003.7
2017-07-12T00:41:16.787Z,1003.8
2017-07-12T00:42:18.813Z,1003.7
2017-07-12T00:43:20.847Z,1003.7
2017-07-12T00:44:22.886Z,1003.7
2017-07-12T00:45:24.908Z,1003.6
2017-07-12T00:46:26.950Z,1003.7
2017-07-12T00:47:28.972Z,1003.7
2017-07-12T00:48:31.009Z,1003.6
2017-07-12T00:49:33.038Z,1003.6
2017-07-12T00:50:35.068Z,1003.6
2017-07-12T00:51:37.103Z,1003.6
2017-07-12T00:52:39.478Z,1003.7
2017-07-12T00:53:41.509Z,1003.7
2017-07-12T00:54:43.541Z,1003.7
2017-07-12T00:55:45.575Z,1003.6
2017-07-12T00:56:47.611Z,1003.6
2017-07-12T00:57:49.643Z,1003.5
2017-07-12T00:58:52.027Z,1003.5
2017-07-12T00:59:54.067Z,1003.5
2017-07-12T01:00:56.091Z,1003.4
2017-07-12T01:01:58.129Z,1003.5
2017-07-12T01:03:00.163Z,1003.5
2017-07-12T01:04:02.195Z,1003.5
2017-07-12T01:05:04.227Z,1003.5
2017-07-12T01:06:06.263Z,1003.5
2017-07-12T01:07:08.300Z,1003.5
2017-07-12T01:08:10.321Z,1003.4
2017-07-12T01:09:12.354Z,1003.4
2017-07-12T01:10:14.390Z,1003.4
2017-07-12T01:11:16.419Z,1003.4
2017-07-12T01:12:18.454Z,1003.4
2017-07-12T01:13:20.475Z,1003.4
2017-07-12T01:14:22.502Z,1003.3
2017-07-12T01:15:24.540Z,1003.4
2017-07-12T01:16:26.565Z,1003.3
2017-07-12T01:17:28.606Z,1003.3
2017-07-12T01:18:30.646Z,1003.3
2017-07-12T01:19:32.664Z,1003.3
2017-07-12T01:20:35.038Z,1003.3
2017-07-12T01:21:37.076Z,1003.4
2017-07-12T01:22:39.106Z,1003.4
2017-07-12T01:23:41.135Z,1003.3
2017-07-12T01:24:43.167Z,1003.3
2017-07-12T01:25:45.205Z,1003.3
2017-07-12T01:26:47.233Z,1003.3
2017-07-12T01:27:49.264Z,1003.2
2017-07-12T01:28:51.300Z,1003.3
2017-07-12T01:29:53.327Z,1003.3
2017-07-12T01:30:55.360Z,1003.4
2017-07-12T01:31:57.437Z,1003.4
2017-07-12T01:32:59.415Z,1003.4
2017-07-12T01:34:01.455Z,1003.4
2017-07-12T01:35:03.831Z,1003.4
2017-07-12T01:36:05.865Z,1003.4
2017-07-12T01:37:07.901Z,1003.4
2017-07-12T01:38:09.931Z,1003.3
2017-07-12T01:39:11.957Z,1003.3
2017-07-12T01:40:13.982Z,1003.2
2017-07-12T01:41:16.027Z,1003.2
2017-07-12T01:42:18.064Z,1003.2
2017-07-12T01:43:20.104Z,1003.1
2017-07-12T01:44:22.154Z,1003.1
2017-07-12T01:45:24.209Z,1003.1
2017-07-12T01:46:26.254Z,1003.1
2017-07-12T01:47:28.303Z,1003.1
2017-07-12T01:48:30.362Z,1003.1
2017-07-12T01:49:32.411Z,1003.1
2017-07-12T01:50:34.461Z,1003.1
2017-07-12T01:51:36.509Z,1003.1
2017-07-12T01:52:38.557Z,1003.1
2017-07-12T01:53:40.602Z,1003
2017-07-12T01:54:42.652Z,1003
2017-07-12T01:55:44.702Z,1003
2017-07-12T01:56:47.094Z,1003
2017-07-12T01:57:49.145Z,1003
2017-07-12T01:58:51.191Z,1003
2017-07-12T01:59:53.241Z,1003
2017-07-12T02:00:55.289Z,1003
2017-07-12T02:01:57.339Z,1003.1
2017-07-12T02:02:59.387Z,1003
2017-07-12T02:04:01.438Z,1003.1
2017-07-12T02:05:03.486Z,1003.1
2017-07-12T02:06:05.535Z,1003.1
2017-07-12T02:07:07.584Z,1003.1
2017-07-12T02:08:09.635Z,1003
2017-07-12T02:09:11.684Z,1003
2017-07-12T02:10:13.731Z,1003
2017-07-12T02:11:15.782Z,1003.1
2017-07-12T02:12:17.830Z,1003.1
2017-07-12T02:13:19.878Z,1003.1
2017-07-12T02:14:21.927Z,1003.1
2017-07-12T02:15:23.979Z,1003.1
2017-07-12T02:16:26.375Z,1003.1
2017-07-12T02:17:28.423Z,1003.1
2017-07-12T02:18:30.473Z,1003
2017-07-12T02:19:32.522Z,1003
2017-07-12T02:20:34.573Z,1003
2017-07-12T02:21:36.624Z,1003
2017-07-12T02:22:38.675Z,1003
2017-07-12T02:23:40.720Z,1003
2017-07-12T02:24:42.772Z,1003
2017-07-12T02:25:44.823Z,1003
2017-07-12T02:26:46.873Z,1003
2017-07-12T02:27:48.922Z,1003
2017-07-12T02:28:50.976Z,1003
2017-07-12T02:29:53.023Z,1003
2017-07-12T02:30:55.072Z,1003
2017-07-12T02:31:57.128Z,1003
2017-07-12T02:32:59.182Z,1003
2017-07-12T02:34:01.230Z,1003
2017-07-12T02:35:03.277Z,1002.9
2017-07-12T02:36:05.330Z,1003
2017-07-12T02:37:07.380Z,1002.9
2017-07-12T02:38:09.434Z,1002.9
2017-07-12T02:39:11.489Z,1002.9
2017-07-12T02:40:13.536Z,1002.8
2017-07-12T02:41:15.587Z,1002.8
2017-07-12T02:42:17.642Z,1002.8
2017-07-12T02:43:19.690Z,1002.8
2017-07-12T02:44:21.740Z,1002.8
2017-07-12T02:45:23.792Z,1002.9
2017-07-12T02:46:25.829Z,1002.9
2017-07-12T02:47:29.082Z,1002.9
2017-07-12T02:48:31.131Z,1002.8
2017-07-12T02:49:33.179Z,1002.8
2017-07-12T02:50:35.233Z,1002.9
2017-07-12T02:51:37.282Z,1002.8
2017-07-12T02:52:39.683Z,1002.9
2017-07-12T02:53:41.733Z,1002.9
2017-07-12T02:54:43.775Z,1002.8
2017-07-12T02:55:45.816Z,1002.9
2017-07-12T02:56:47.863Z,1002.8
2017-07-12T02:57:49.888Z,1002.8
2017-07-12T02:58:51.922Z,1002.8
2017-07-12T02:59:53.957Z,1002.8
2017-07-12T03:00:55.992Z,1002.8
2017-07-12T03:01:58.025Z,1002.8
2017-07-12T03:03:00.054Z,1002.8
2017-07-12T03:04:02.097Z,1002.8
2017-07-12T03:05:04.126Z,1002.8
2017-07-12T03:06:06.151Z,1002.8
2017-07-12T03:07:08.191Z,1002.8
2017-07-12T03:08:10.229Z,1002.8
2017-07-12T03:09:12.265Z,1002.8
2017-07-12T03:10:14.298Z,1002.7
2017-07-12T03:11:16.337Z,1002.7
2017-07-12T03:12:18.372Z,1002.7
2017-07-12T03:13:20.400Z,1002.7
2017-07-12T03:14:22.437Z,1002.7
2017-07-12T03:15:24.480Z,1002.7
2017-07-12T03:16:26.508Z,1002.7
2017-07-12T03:17:28.548Z,1002.6
2017-07-12T03:18:30.578Z,1002.6
2017-07-12T03:19:32.611Z,1002.6
2017-07-12T03:20:34.644Z,1002.6
2017-07-12T03:21:36.668Z,1002.6
2017-07-12T03:22:38.720Z,1002.6
2017-07-12T03:23:40.750Z,1002.6
2017-07-12T03:24:42.777Z,1002.6
2017-07-12T03:25:44.823Z,1002.6
2017-07-12T03:26:46.862Z,1002.6
2017-07-12T03:27:48.893Z,1002.5
2017-07-12T03:28:50.933Z,1002.6
2017-07-12T03:29:52.955Z,1002.6
2017-07-12T03:30:54.995Z,1002.6
2017-07-12T03:31:57.382Z,1002.6
2017-07-12T03:32:59.414Z,1002.6
2017-07-12T03:34:01.448Z,1002.6
2017-07-12T03:35:03.481Z,1002.6
2017-07-12T03:36:05.509Z,1002.6
2017-07-12T03:37:07.557Z,1002.6
2017-07-12T03:38:09.586Z,1002.5
2017-07-12T03:39:11.630Z,1002.6
2017-07-12T03:40:14.004Z,1002.6
2017-07-12T03:41:16.383Z,1002.6
2017-07-12T03:42:18.420Z,1002.6
2017-07-12T03:43:20.459Z,1002.6
2017-07-12T03:44:22.833Z,1002.6
2017-07-12T03:45:24.871Z,1002.6
2017-07-12T03:46:26.905Z,1002.6
2017-07-12T03:47:28.951Z,1002.6
2017-07-12T03:48:30.976Z,1002.6
2017-07-12T03:49:33.008Z,1002.6
2017-07-12T03:50:35.046Z,1002.6
2017-07-12T03:51:37.086Z,1002.6
2017-07-12T03:52:39.119Z,1002.5
2017-07-12T03:53:41.151Z,1002.5
2017-07-12T03:54:43.183Z,1002.6
2017-07-12T03:55:45.222Z,1002.6
2017-07-12T03:56:47.246Z,1002.6
2017-07-12T03:57:49.288Z,1002.6
2017-07-12T03:58:51.319Z,1002.7
2017-07-12T03:59:53.353Z,1002.6
2017-07-12T04:00:55.390Z,1002.7
2017-07-12T04:01:57.429Z,1002.7
2017-07-12T04:02:59.459Z,1002.6
2017-07-12T04:04:01.502Z,1002.7
2017-07-12T04:05:03.533Z,1002.6
2017-07-12T04:06:05.576Z,1002.7
2017-07-12T04:07:07.617Z,1002.6
2017-07-12T04:08:09.648Z,1002.6
2017-07-12T04:09:11.684Z,1002.6
2017-07-12T04:10:13.712Z,1002.6
2017-07-12T04:11:15.741Z,1002.7
2017-07-12T04:12:17.793Z,1002.7
2017-07-12T04:13:20.509Z,1002.6
2017-07-12T04:14:22.880Z,1002.6
2017-07-12T04:15:24.916Z,1002.6
2017-07-12T04:16:26.952Z,1002.6
2017-07-12T04:17:28.979Z,1002.6
2017-07-12T04:18:31.013Z,1002.6
2017-07-12T04:19:33.061Z,1002.5
2017-07-12T04:20:35.094Z,1002.5
2017-07-12T04:21:37.125Z,1002.5
2017-07-12T04:22:39.166Z,1002.5
2017-07-12T04:23:41.201Z,1002.5
2017-07-12T04:24:43.246Z,1002.5
2017-07-12T04:25:45.662Z,1002.5
2017-07-12T04:26:47.710Z,1002.5
2017-07-12T04:27:49.747Z,1002.5
2017-07-12T04:28:51.781Z,1002.5
2017-07-12T04:29:53.823Z,1002.5
2017-07-12T04:30:55.864Z,1002.5
2017-07-12T04:31:57.905Z,1002.5
2017-07-12T04:32:59.935Z,1002.5
2017-07-12T04:34:01.973Z,1002.5
2017-07-12T04:35:04.021Z,1002.5
2017-07-12T04:36:06.040Z,1002.5
2017-07-12T04:37:08.083Z,1002.5
2017-07-12T04:38:10.126Z,1002.4
2017-07-12T04:39:12.159Z,1002.4
2017-07-12T04:40:14.890Z,1002.4
2017-07-12T04:41:16.926Z,1002.4
2017-07-12T04:42:18.960Z,1002.4
2017-07-12T04:43:20.997Z,1002.5
2017-07-12T04:44:23.032Z,1002.4
2017-07-12T04:45:25.409Z,1002.4
2017-07-12T04:46:27.450Z,1002.4
2017-07-12T04:47:29.494Z,1002.4
2017-07-12T04:48:31.525Z,1002.4
2017-07-12T04:49:33.559Z,1002.4
2017-07-12T04:50:35.601Z,1002.4
2017-07-12T04:51:38.043Z,1002.4
2017-07-12T04:52:40.323Z,1002.4
2017-07-12T04:53:42.814Z,1002.4
2017-07-12T04:54:45.238Z,1002.4
2017-07-12T04:55:47.320Z,1002.4
2017-07-12T04:56:49.473Z,1002.3
2017-07-12T04:57:52.281Z,1002.4
2017-07-12T04:58:54.433Z,1002.4
2017-07-12T04:59:56.550Z,1002.4
2017-07-12T05:00:58.943Z,1002.3
2017-07-12T05:02:01.321Z,1002.4
2017-07-12T05:03:03.533Z,1002.3
2017-07-12T05:04:05.825Z,1002.3
2017-07-12T05:05:08.234Z,1002.3
2017-07-12T05:06:10.368Z,1002.3
2017-07-12T05:07:12.481Z,1002.3
2017-07-12T05:08:14.609Z,1002.3
2017-07-12T05:09:16.812Z,1002.4
2017-07-12T05:10:19.070Z,1002.3
2017-07-12T05:11:21.248Z,1002.3
2017-07-12T05:12:23.414Z,1002.3
2017-07-12T05:13:26.394Z,1002.3
2017-07-12T05:14:28.549Z,1002.3
2017-07-12T05:15:30.633Z,1002.3
2017-07-12T05:16:33.059Z,1002.3
2017-07-12T05:17:35.480Z,1002.3
2017-07-12T05:18:37.931Z,1002.3
2017-07-12T05:19:41.235Z,1002.4
2017-07-12T05:20:44.018Z,1002.3
2017-07-12T05:21:46.488Z,1002.3
2017-07-12T05:22:48.930Z,1002.3
2017-07-12T05:23:51.903Z,1002.3
2017-07-12T05:24:54.161Z,1002.3
2017-07-12T05:25:56.491Z,1002.3
2017-07-12T05:26:59.513Z,1002.3
2017-07-12T05:28:01.752Z,1002.4
2017-07-12T05:29:03.821Z,1002.4
2017-07-12T05:30:05.853Z,1002.3
2017-07-12T05:31:07.896Z,1002.4
2017-07-12T05:32:09.937Z,1002.4
2017-07-12T05:33:11.977Z,1002.3
2017-07-12T05:34:14.017Z,1002.4
2017-07-12T05:35:16.053Z,1002.4
2017-07-12T05:36:18.107Z,1002.4
2017-07-12T05:37:20.143Z,1002.4
2017-07-12T05:38:22.197Z,1002.4
2017-07-12T05:39:24.598Z,1002.4
2017-07-12T05:40:26.638Z,1002.4
2017-07-12T05:41:28.675Z,1002.4
2017-07-12T05:42:30.723Z,1002.4
2017-07-12T05:43:32.762Z,1002.4
2017-07-12T05:44:34.800Z,1002.4
2017-07-12T05:45:36.842Z,1002.4
2017-07-12T05:46:38.883Z,1002.4
2017-07-12T05:47:40.921Z,1002.3
2017-07-12T05:48:42.969Z,1002.4
2017-07-12T05:49:45.003Z,1002.4
2017-07-12T05:50:47.048Z,1002.3
2017-07-12T05:51:49.432Z,1002.3
2017-07-12T05:52:51.482Z,1002.3
2017-07-12T05:53:53.525Z,1002.3
2017-07-12T05:54:55.571Z,1002.3
2017-07-12T05:55:57.617Z,1002.3
2017-07-12T05:56:59.654Z,1002.3
2017-07-12T05:58:02.725Z,1002.3
2017-07-12T05:59:06.236Z,1002.3
2017-07-12T06:00:13.530Z,1002.3
2017-07-12T06:01:21.724Z,1002.3
2017-07-12T06:02:31.055Z,1002.3
2017-07-12T06:03:37.030Z,1002.2
2017-07-12T06:04:46.886Z,1002.2
2017-07-12T06:05:57.779Z,1002.2
2017-07-12T06:07:07.101Z,1002.2
2017-07-12T06:08:15.482Z,1002.1
2017-07-12T06:09:22.684Z,1002.1
2017-07-12T06:10:29.996Z,1002.1
2017-07-12T06:11:32.033Z,1002.1
2017-07-12T06:12:34.127Z,1002.1
2017-07-12T06:13:36.188Z,1002
2017-07-12T06:14:38.220Z,1002
2017-07-12T06:15:40.278Z,1002
2017-07-12T06:16:42.334Z,1002
2017-07-12T06:17:44.723Z,1002
2017-07-12T06:18:46.783Z,1002
2017-07-12T06:19:48.864Z,1002
2017-07-12T06:20:50.902Z,1002
2017-07-12T06:21:52.960Z,1002
2017-07-12T06:22:55.019Z,1002
2017-07-12T06:23:57.075Z,1002
2017-07-12T06:24:59.121Z,1002
2017-07-12T06:26:01.155Z,1002
2017-07-12T06:27:03.281Z,1001.9
2017-07-12T06:28:05.352Z,1002
2017-07-12T06:29:07.418Z,1002
2017-07-12T06:30:09.504Z,1002
2017-07-12T06:31:11.558Z,1001.9
2017-07-12T06:32:13.614Z,1002
2017-07-12T06:33:15.653Z,1002
2017-07-12T06:34:17.719Z,1001.9
2017-07-12T06:35:19.854Z,1001.9
2017-07-12T06:36:21.909Z,1001.9
2017-07-12T06:37:23.976Z,1001.9
2017-07-12T06:38:26.120Z,1001.8
2017-07-12T06:39:28.192Z,1001.8
2017-07-12T06:40:30.252Z,1001.8
2017-07-12T06:41:32.352Z,1001.8
2017-07-12T06:42:34.414Z,1001.8
2017-07-12T06:45:55.455Z,1001.7
2017-07-12T06:46:57.488Z,1001.7
2017-07-12T06:47:59.513Z,1001.7
2017-07-12T06:49:01.538Z,1001.7
2017-07-12T06:50:03.553Z,1001.7
2017-07-12T06:51:05.589Z,1001.7
2017-07-12T06:52:07.608Z,1001.7
2017-07-12T06:53:09.622Z,1001.7
2017-07-12T06:54:11.646Z,1001.7
2017-07-12T06:55:13.668Z,1001.7
2017-07-12T06:56:15.702Z,1001.6
2017-07-12T06:57:17.722Z,1001.6
2017-07-12T06:58:19.744Z,1001.5
2017-07-12T06:59:21.783Z,1001.6
2017-07-12T07:00:24.123Z,1001.6
2017-07-12T07:01:26.152Z,1001.6
2017-07-12T07:02:28.183Z,1001.6
2017-07-12T07:03:30.197Z,1001.6
2017-07-12T07:04:32.218Z,1001.6
2017-07-12T07:05:34.241Z,1001.5
2017-07-12T07:06:36.259Z,1001.5
2017-07-12T07:07:38.274Z,1001.5
2017-07-12T07:08:40.291Z,1001.6
2017-07-12T07:09:42.321Z,1001.6
2017-07-12T07:10:44.341Z,1001.6
2017-07-12T07:11:46.360Z,1001.6
2017-07-12T07:12:48.374Z,1001.6
2017-07-12T07:13:50.396Z,1001.6
2017-07-12T07:14:52.411Z,1001.6
2017-07-12T07:15:54.433Z,1001.6
2017-07-12T07:16:56.460Z,1001.6
2017-07-12T07:17:58.481Z,1001.5
2017-07-12T07:19:00.501Z,1001.6
2017-07-12T07:20:02.521Z,1001.6
2017-07-12T07:21:04.541Z,1001.5
2017-07-12T07:22:06.854Z,1001.5
2017-07-12T07:23:08.878Z,1001.5
2017-07-12T07:24:10.893Z,1001.4
2017-07-12T07:25:12.918Z,1001.5
2017-07-12T07:26:14.931Z,1001.4
2017-07-12T07:27:16.954Z,1001.4
2017-07-12T07:28:18.973Z,1001.4
2017-07-12T07:29:20.989Z,1001.4
2017-07-12T07:30:23.007Z,1001.4
2017-07-12T07:31:25.403Z,1001.4
2017-07-12T07:32:27.414Z,1001.4
2017-07-12T07:33:29.433Z,1001.4
2017-07-12T07:34:31.436Z,1001.4
2017-07-12T07:35:33.457Z,1001.3
2017-07-12T07:36:35.481Z,1001.3
2017-07-12T07:37:37.612Z,1001.3
2017-07-12T07:38:39.685Z,1001.3
2017-07-12T07:39:41.655Z,1001.3
2017-07-12T07:40:43.666Z,1001.3
2017-07-12T07:41:45.686Z,1001.2
2017-07-12T07:42:47.706Z,1001.2
2017-07-12T07:43:49.727Z,1001.2
2017-07-12T07:44:51.799Z,1001.2
2017-07-12T07:45:53.767Z,1001.1
2017-07-12T07:46:55.786Z,1001.1
2017-07-12T07:47:57.806Z,1001.1
2017-07-12T07:48:59.819Z,1001.1
2017-07-12T07:50:01.846Z,1001.1
2017-07-12T07:51:03.863Z,1001.1
2017-07-12T07:52:05.887Z,1001.1
2017-07-12T07:53:07.904Z,1001.1
2017-07-12T07:54:09.926Z,1001.1
2017-07-12T07:55:11.946Z,1001
2017-07-12T07:56:13.968Z,1001
2017-07-12T07:57:15.986Z,1001
2017-07-12T07:58:18.003Z,1001
2017-07-12T07:59:20.025Z,1001
2017-07-12T08:00:22.043Z,1001
2017-07-12T08:01:24.062Z,1001
2017-07-12T08:02:26.084Z,1001
2017-07-12T08:03:28.096Z,1001
2017-07-12T08:04:30.125Z,1001
2017-07-12T08:05:32.143Z,1001
2017-07-12T08:06:34.169Z,1000.9
2017-07-12T08:07:36.190Z,1000.9
2017-07-12T08:08:38.209Z,1000.9
2017-07-12T08:09:40.230Z,1000.8
2017-07-12T08:10:42.244Z,1000.8
2017-07-12T08:11:44.273Z,1000.8
2017-07-12T08:12:46.297Z,1000.8
2017-07-12T08:13:48.307Z,1000.7
2017-07-12T08:14:50.335Z,1000.7
2017-07-12T08:15:52.349Z,1000.7
2017-07-12T08:16:54.371Z,1000.7
2017-07-12T08:17:56.393Z,1000.7
2017-07-12T08:18:58.410Z,1000.7
2017-07-12T08:20:00.431Z,1000.7
2017-07-12T08:21:02.442Z,1000.7
2017-07-12T08:22:04.463Z,1000.7
2017-07-12T08:23:06.498Z,1000.7
2017-07-12T08:24:08.512Z,1000.7
2017-07-12T08:25:10.534Z,1000.7
2017-07-12T08:26:12.558Z,1000.7
2017-07-12T08:27:14.585Z,1000.6
2017-07-12T08:28:16.601Z,1000.6
2017-07-12T08:29:18.621Z,1000.6
2017-07-12T08:30:20.654Z,1000.6
2017-07-12T08:31:22.679Z,1000.6
2017-07-12T08:32:24.694Z,1000.6
2017-07-12T08:33:26.719Z,1000.7
2017-07-12T08:34:28.742Z,1000.6
2017-07-12T08:35:30.761Z,1000.6
2017-07-12T08:36:32.790Z,1000.6
2017-07-12T08:37:34.809Z,1000.5
2017-07-12T08:38:36.829Z,1000.5
2017-07-12T08:39:38.862Z,1000.5
2017-07-12T08:40:40.884Z,1000.5
2017-07-12T08:41:42.898Z,1000.5
2017-07-12T08:42:44.927Z,1000.5
2017-07-12T08:43:46.950Z,1000.5
2017-07-12T08:44:48.966Z,1000.5
2017-07-12T08:45:50.981Z,1000.5
2017-07-12T08:46:53.017Z,1000.5
2017-07-12T08:47:55.037Z,1000.5
2017-07-12T08:48:57.055Z,1000.5
2017-07-12T08:49:59.091Z,1000.5
2017-07-12T08:51:01.453Z,1000.5
2017-07-12T08:52:03.482Z,1000.5
2017-07-12T08:53:05.502Z,1000.5
2017-07-12T08:54:07.525Z,1000.5
2017-07-12T08:55:09.552Z,1000.5
2017-07-12T08:56:11.564Z,1000.5
2017-07-12T08:57:13.589Z,1000.5
2017-07-12T08:58:15.622Z,1000.5
2017-07-12T08:59:17.640Z,1000.5
2017-07-12T09:00:19.665Z,1000.5
2017-07-12T09:01:21.690Z,1000.4
2017-07-12T09:02:23.712Z,1000.5
2017-07-12T09:03:25.753Z,1000.5
2017-07-12T09:04:27.793Z,1000.5
2017-07-12T09:05:29.823Z,1000.5
2017-07-12T09:06:31.849Z,1000.4
2017-07-12T09:07:33.933Z,1000.4
2017-07-12T09:08:36.006Z,1000.4
2017-07-12T09:09:38.200Z,1000.4
2017-07-12T09:10:40.362Z,1000.4
2017-07-12T09:11:42.418Z,1000.4
2017-07-12T09:12:44.475Z,1000.4
2017-07-12T09:13:46.530Z,1000.4
2017-07-12T09:14:48.591Z,1000.4
2017-07-12T09:15:50.977Z,1000.3
2017-07-12T09:16:53.000Z,1000.4
2017-07-12T09:17:55.052Z,1000.4
2017-07-12T09:18:57.111Z,1000.4
2017-07-12T09:19:59.177Z,1000.4
2017-07-12T09:21:01.559Z,1000.4
2017-07-12T09:22:03.611Z,1000.3
2017-07-12T09:23:05.643Z,1000.4
2017-07-12T09:24:07.675Z,1000.3
2017-07-12T09:33:35.223Z,1000.3
2017-07-12T09:34:37.282Z,1000.2
2017-07-12T09:35:39.313Z,1000.2
2017-07-12T09:36:41.382Z,1000.2
2017-07-12T09:37:43.412Z,1000.2
2017-07-12T09:38:45.808Z,1000.2
2017-07-12T09:39:47.847Z,1000.2
2017-07-12T09:40:49.875Z,1000.2
2017-07-12T09:41:52.236Z,1000.1
2017-07-12T09:42:54.266Z,1000.2
2017-07-12T09:43:56.315Z,1000.1
2017-07-12T09:44:58.370Z,1000.1
2017-07-12T09:46:00.436Z,1000.1
2017-07-12T09:47:02.523Z,1000.1
2017-07-12T09:48:04.557Z,1000.1
2017-07-12T09:49:06.585Z,1000.1
2017-07-12T09:50:08.651Z,1000
2017-07-12T09:51:10.703Z,1000.1
2017-07-12T09:52:12.747Z,1000.1
2017-07-12T09:53:14.756Z,1000.1
2017-07-12T09:54:16.790Z,1000.1
2017-07-12T09:55:18.825Z,1000
2017-07-12T09:56:20.891Z,1000.1
2017-07-12T09:57:22.977Z,1000
2017-07-12T09:58:25.038Z,1000.1
2017-07-12T09:59:27.085Z,1000
2017-07-12T10:00:29.093Z,1000
2017-07-12T10:01:31.136Z,1000.1
2017-07-12T10:02:33.171Z,1000
2017-07-12T10:03:35.224Z,1000
2017-07-12T10:04:37.244Z,1000
2017-07-12T10:05:39.294Z,1000
2017-07-12T10:06:41.317Z,1000
2017-07-12T10:07:43.355Z,999.9
2017-07-12T10:08:45.376Z,1000
2017-07-12T10:09:47.407Z,1000
2017-07-12T10:10:49.789Z,1000
2017-07-12T10:11:52.185Z,1000
2017-07-12T10:12:54.223Z,999.9
2017-07-12T10:13:56.242Z,1000
2017-07-12T10:14:58.274Z,999.9
2017-07-12T10:16:00.360Z,1000
2017-07-12T10:17:02.379Z,999.9
2017-07-12T10:18:04.412Z,999.9
2017-07-12T10:19:06.445Z,999.9
2017-07-12T10:20:08.509Z,999.9
2017-07-12T10:21:10.543Z,999.9
2017-07-12T10:22:12.562Z,999.9
2017-07-12T10:23:14.930Z,999.9
2017-07-12T10:24:16.959Z,999.9
2017-07-12T10:25:18.981Z,999.9
2017-07-12T10:26:21.021Z,999.9
2017-07-12T10:27:23.035Z,999.9
2017-07-12T10:28:25.059Z,999.8
2017-07-12T10:29:27.087Z,999.8
2017-07-12T10:30:29.116Z,999.9
2017-07-12T10:31:31.143Z,999.8
2017-07-12T10:32:33.254Z,999.8
2017-07-12T10:33:35.257Z,999.8
2017-07-12T10:34:37.288Z,999.8
2017-07-12T10:35:39.308Z,999.8
2017-07-12T10:36:41.329Z,999.8
2017-07-12T10:37:43.492Z,999.8
2017-07-12T10:38:45.526Z,999.7
2017-07-12T10:39:47.878Z,999.8
2017-07-12T10:40:49.909Z,999.7
2017-07-12T10:41:51.976Z,999.7
2017-07-12T10:42:54.006Z,999.7
2017-07-12T10:43:56.032Z,999.7
2017-07-12T10:44:58.052Z,999.7
2017-07-12T10:46:00.080Z,999.6
2017-07-12T10:47:02.143Z,999.6
2017-07-12T10:48:04.170Z,999.6
2017-07-12T10:49:06.194Z,999.6
2017-07-12T10:50:08.223Z,999.6
2017-07-12T10:51:10.255Z,999.6
2017-07-12T10:52:12.285Z,999.6
2017-07-12T10:53:14.313Z,999.6
2017-07-12T10:54:16.341Z,999.5
2017-07-12T10:55:18.361Z,999.5
2017-07-12T10:56:20.384Z,999.5
2017-07-12T10:57:22.752Z,999.5
2017-07-12T10:58:24.771Z,999.5
2017-07-12T10:59:26.800Z,999.5
2017-07-12T11:00:28.814Z,999.4
2017-07-12T11:01:30.848Z,999.4
2017-07-12T11:02:33.224Z,999.4
2017-07-12T11:03:35.245Z,999.4
2017-07-12T11:04:37.277Z,999.4
2017-07-12T11:05:39.293Z,999.3
2017-07-12T11:06:41.319Z,999.4
2017-07-12T11:07:43.425Z,999.3
2017-07-12T11:08:45.443Z,999.3
2017-07-12T11:09:47.475Z,999.3
2017-07-12T11:10:49.495Z,999.3
2017-07-12T11:11:51.860Z,999.3
2017-07-12T11:12:53.969Z,999.3
2017-07-12T11:13:55.983Z,999.3
2017-07-12T11:14:58.008Z,999.3
2017-07-12T11:16:00.038Z,999.3
2017-07-12T11:17:02.198Z,999.3
2017-07-12T11:18:04.219Z,999.3
2017-07-12T11:19:06.247Z,999.3
2017-07-12T11:20:08.620Z,999.3
2017-07-12T11:21:10.645Z,999.3
2017-07-12T11:22:12.665Z,999.3
2017-07-12T11:23:14.699Z,999.3
2017-07-12T11:24:16.724Z,999.3
2017-07-12T11:25:18.740Z,999.3
2017-07-12T11:26:20.769Z,999.3
2017-07-12T11:27:22.784Z,999.3
2017-07-12T11:28:24.811Z,999.3
2017-07-12T11:29:26.835Z,999.3
2017-07-12T11:30:29.203Z,999.3
2017-07-12T11:31:31.227Z,999.3
2017-07-12T11:32:33.381Z,999.3
2017-07-12T11:33:35.414Z,999.2
2017-07-12T11:34:37.435Z,999.2
2017-07-12T11:35:39.461Z,999.2
2017-07-12T11:36:41.489Z,999.2
2017-07-12T11:37:43.743Z,999.2
2017-07-12T11:38:45.747Z,999.2
2017-07-12T11:39:47.763Z,999.2
2017-07-12T11:40:49.783Z,999.2
2017-07-12T11:41:51.936Z,999.2
2017-07-12T11:42:53.957Z,999.2
2017-07-12T11:43:55.988Z,999.2
2017-07-12T11:44:58.014Z,999.2
2017-07-12T11:46:00.037Z,999.2
2017-07-12T11:47:02.053Z,999.2
2017-07-12T11:48:04.078Z,999.2
2017-07-12T11:49:06.097Z,999.2
2017-07-12T11:50:08.123Z,999.2
2017-07-12T11:51:10.476Z,999.1
2017-07-12T11:52:12.587Z,999.2
2017-07-12T11:53:14.609Z,999.1
2017-07-12T11:54:16.628Z,999.2
2017-07-12T11:55:18.647Z,999.2
2017-07-12T11:56:20.685Z,999.1
2017-07-12T11:57:22.702Z,999.1
2017-07-12T11:58:24.730Z,999.2
2017-07-12T11:59:26.758Z,999.2
2017-07-12T12:00:28.781Z,999.2
2017-07-12T12:01:30.801Z,999.2
2017-07-12T12:02:32.828Z,999.2
2017-07-12T12:03:34.846Z,999.2
2017-07-12T12:04:36.881Z,999.3
2017-07-12T12:05:38.897Z,999.3
2017-07-12T12:06:40.921Z,999.3
2017-07-12T12:07:42.959Z,999.2
2017-07-12T12:08:44.997Z,999.2
2017-07-12T12:09:47.007Z,999.2
2017-07-12T12:10:49.052Z,999.2
2017-07-12T12:11:51.080Z,999.1
2017-07-12T12:12:53.131Z,999.2
2017-07-12T12:13:55.163Z,999.2
2017-07-12T12:14:57.217Z,999.2
2017-07-12T12:15:59.252Z,999.2
2017-07-12T12:17:01.367Z,999.2
2017-07-12T12:18:03.396Z,999.1
2017-07-12T12:19:05.447Z,999.1
2017-07-12T12:20:07.489Z,999.1
2017-07-12T12:21:09.524Z,999.2
2017-07-12T12:22:11.561Z,999.1
2017-07-12T12:23:14.149Z,999.1
2017-07-12T12:24:19.912Z,999.1
2017-07-12T12:25:26.872Z,999.1
2017-07-12T12:26:34.258Z,999.1
2017-07-12T12:27:42.101Z,999.1
2017-07-12T12:28:50.643Z,999.1
2017-07-12T12:29:59.228Z,999.1
2017-07-12T12:31:08.803Z,999.1
2017-07-12T12:32:16.712Z,999.1
2017-07-12T12:33:24.949Z,999
2017-07-12T12:34:34.848Z,999
2017-07-12T12:35:43.171Z,999
2017-07-12T12:36:51.657Z,999
2017-07-12T12:38:01.770Z,999
2017-07-12T12:40:46.243Z,999
2017-07-12T12:41:54.111Z,999.1
2017-07-12T12:43:03.411Z,999
2017-07-12T12:44:11.306Z,999.1
2017-07-12T12:45:19.781Z,999.1
2017-07-12T12:46:27.279Z,999
2017-07-12T12:47:34.603Z,999
2017-07-12T12:48:41.745Z,999
2017-07-12T12:49:50.205Z,999
2017-07-12T12:50:58.925Z,999
2017-07-12T12:52:07.693Z,999
2017-07-12T12:53:16.048Z,999
2017-07-12T12:54:23.992Z,999.1
2017-07-12T12:55:38.498Z,999.1
2017-07-12T12:56:47.649Z,999.1
2017-07-12T12:57:57.033Z,999.1
2017-07-12T12:59:09.012Z,999.1
2017-07-12T13:00:17.689Z,999.1
2017-07-12T13:01:25.281Z,999.1
2017-07-12T13:02:31.143Z,999.1
2017-07-12T13:03:39.281Z,999
2017-07-12T13:04:48.221Z,999.1
2017-07-12T13:05:56.126Z,999.1
2017-07-12T13:07:04.935Z,999.1
2017-07-12T13:08:13.531Z,999.1
2017-07-12T13:09:27.562Z,999.1
2017-07-12T13:10:35.698Z,999.1
2017-07-12T13:11:43.759Z,999.1
2017-07-12T13:12:52.374Z,999.1
2017-07-12T13:13:59.733Z,999.2
2017-07-12T13:15:08.105Z,999.2
2017-07-12T13:16:18.327Z,999.2
2017-07-12T13:17:26.286Z,999.2
2017-07-12T13:18:34.149Z,999.2
2017-07-12T13:19:42.326Z,999.2
2017-07-12T13:20:50.179Z,999.2
2017-07-12T13:21:58.360Z,999.3
2017-07-12T13:23:06.392Z,999.3
2017-07-12T13:24:13.843Z,999.3
2017-07-12T13:25:21.672Z,999.3
2017-07-12T13:26:31.059Z,999.3